首页
METAR-TAF:

METAR-TAF

机场 :

High Level, 艾伯塔, 加拿大

纬度: 58-37N, 经度: 117-10W, 海拔: 338米

当前天气观测

该预报发布于1小时和20分钟前的05:00 UTC
静风
温度 -18°C
湿度 92%
气压 1003 hPa
能見度: 24.1公里
天空无云

METAR: CYOJ 220500Z 00000KT 15SM SKC M18/M19 A2962 RMK LAST STFD OBS/NXT 221400Z SLP065

时间: 23:20 (06:20 UTC)

预报

该预报发布于2小时和12分钟前的04:08 UTC
预报有效从22日的 04点(UTC)到 22日的 13点(UTC)
风速节,风向
能見度: 10公里
天空无云
成为
从 22日的 07点(UTC)到 22日的 09点(UTC)
风速5节,风向东南
从 22日的 0900点(UTC)
风速5节,风向东南
能見度: 10公里
少量云层高于15000英尺
散云层高于22000英尺
从 22日的 1100点(UTC)
风速7节,风向东南
能見度: 10公里
多云层高于8000英尺
多云层高于14000英尺

TAF: CYOJ 220408Z 2204/2213 00000KT P6SM SKC BECMG 2207/2209 14005KT FM220900 14005KT P6SM FEW150 SCT220 FM221100 13007KT P6SM BKN080 BKN140 RMK NXT FCST BY 220700Z

超过4000个机场的气象观测和天气预报(METAR&TAF报告)。

可查询的气象台以黄色和红色小点在地图上表示。

将鼠标移到小点上方,可查看气象台名称。

然后点击查看天气观测和预报。

如需切换地图:点击带黑十字的绿色按钮放大地图;点击带横线的绿色按钮缩小地图;或者点击绿色箭头查看邻近地区的地图。


METAR-TAF: